Decoded Metar for SAOC (RIO CUARTO in ARGENTINA) (IATA:RCU) | Meteo·Mobile Aviation Weather
aviador You're here:

SAOC Decoded Metar

RIO CUARTO in ARGENTINA
Report Time2018-09-19 22:00:00
UTC Time2018-09-19 22:22:12
Flight Rules vfr VFR
Wind050° at 13 kt
W.Decomp.*RWY 05: 13.0 kt HW 0.5 kt RCW
RWY 36: 8.0 kt HW 10.2 kt RCW
W.Rank050° ranks 4
Current wind is above 050° avg. (9.6)
Visibility9999 m
Phenomena:N/A
Clouds:N/A
Expected CloudBase > 5,600 ft AGL from Temp-Dew spread
CeilingNone
Temp16°C (ISA +4)
Dew Point02°C (39% RH)
AAT9.7°C
QNH1014 hPa
Density Alt1,890 ft
Elevation1,381 ft
Report Wrong Elevation
Raw Report
SAOC 192200Z 05013KT CAVOK 16/02 Q1014=

Extra information for SAOC:More info

Metar Taf Metar & Taf Last 4 Metars F.Rules Stats Wind Profile Meteogram Temp Stats Airport Information Weather charts Add Link Nearby VenuesMetar ALERT Operation Metar Decoded Social comments